Time;durP1;ratioP1;P1;durP2;ratioP2;P2;SDS_P1;SDS_P2;PMS_P1;PMS_P2;Temp;Humidity;BMP_temperature;BMP_pressure;BME280_temperature;BME280_humidity;BME280_pressure;Samples;Min_cycle;Max_cycle;Signal;HPM_P1;HPM_P2
2021/05/29 00:03:02;;;;;;;1.98;1.25;;;;;;;10.38;45.24;101937.19;8088823;28;20035;-71
2021/05/29 00:06:53;;;;;;;1.45;1.30;;;;;;;10.40;45.28;101951.97;8091115;28;20411;-71
2021/05/29 00:10:47;;;;;;;2.05;1.30;;;;;;;10.36;45.48;101950.41;8088304;28;20032;-72
2021/05/29 00:14:39;;;;;;;2.88;1.40;;;;;;;10.32;45.26;101948.00;8090690;28;20093;-72
2021/05/29 00:18:30;;;;;;;2.05;1.60;;;;;;;10.28;45.39;101947.25;8089392;27;20422;-72
2021/05/29 00:22:20;;;;;;;1.55;1.33;;;;;;;10.21;45.48;101944.09;8084292;28;20032;-72
2021/05/29 00:26:11;;;;;;;1.95;1.30;;;;;;;10.18;45.52;101952.13;8092585;28;20114;-71
2021/05/29 00:30:04;;;;;;;10.73;1.80;;;;;;;10.09;45.52;101949.94;8092070;27;20030;-71
2021/05/29 00:33:55;;;;;;;5.22;1.58;;;;;;;10.06;45.52;101946.59;8085128;27;20089;-72
2021/05/29 00:37:46;;;;;;;2.22;1.40;;;;;;;10.05;45.57;101950.13;8091077;28;20040;-71
2021/05/29 00:41:36;;;;;;;4.22;1.50;;;;;;;10.01;45.80;101944.19;8090345;28;20135;-71
2021/05/29 00:45:28;;;;;;;1.90;1.45;;;;;;;9.96;45.76;101946.16;8092408;28;20035;-71
2021/05/29 00:49:19;;;;;;;1.98;1.40;;;;;;;9.92;45.75;101946.38;8092371;28;20059;-72
2021/05/29 00:53:10;;;;;;;2.63;1.40;;;;;;;9.88;45.96;101950.06;8089823;28;20084;-71
2021/05/29 00:57:00;;;;;;;1.77;1.23;;;;;;;9.82;45.90;101939.88;8077475;28;20046;-71
2021/05/29 01:00:52;;;;;;;3.15;1.65;;;;;;;9.81;45.97;101948.66;8088932;27;20127;-71
2021/05/29 01:04:44;;;;;;;2.63;1.45;;;;;;;9.77;46.16;101947.94;8088612;28;20040;-70
2021/05/29 01:08:35;;;;;;;1.58;1.45;;;;;;;9.72;45.72;101950.78;8085790;28;20050;-71
2021/05/29 01:12:25;;;;;;;2.05;1.50;;;;;;;9.66;46.24;101942.31;8090570;28;20448;-71
2021/05/29 01:16:31;;;;;;;2.10;1.50;;;;;;;9.65;46.28;101951.13;8090503;28;20661;-71
2021/05/29 01:20:22;;;;;;;2.50;1.55;;;;;;;9.59;46.42;101946.16;8081104;28;20028;-71
2021/05/29 01:24:13;;;;;;;1.83;1.50;;;;;;;9.47;46.26;101944.06;8081607;28;20046;-72
2021/05/29 01:28:11;;;;;;;2.13;1.50;;;;;;;9.52;46.21;101956.06;8088376;28;20024;-71
2021/05/29 01:32:05;;;;;;;2.17;1.40;;;;;;;9.47;46.39;101955.41;8089897;28;20063;-71
2021/05/29 01:36:00;;;;;;;1.60;1.50;;;;;;;9.43;46.29;101953.84;8084878;28;20044;-72
2021/05/29 01:39:52;;;;;;;2.40;1.65;;;;;;;9.38;46.48;101947.94;8088530;28;20039;-72
2021/05/29 01:43:48;;;;;;;1.42;1.27;;;;;;;9.37;46.43;101945.41;8088755;28;20028;-71
2021/05/29 01:47:44;;;;;;;1.65;1.50;;;;;;;9.33;46.60;101953.34;8088668;27;20043;-71
2021/05/29 01:51:35;;;;;;;1.92;1.40;;;;;;;9.29;46.65;101945.69;8088266;28;20063;-71
2021/05/29 01:55:28;;;;;;;2.35;1.60;;;;;;;9.26;46.49;101941.44;8080353;28;20126;-71
2021/05/29 01:59:19;;;;;;;11.10;2.70;;;;;;;9.21;46.71;101946.03;8089512;28;20062;-71
2021/05/29 02:03:10;;;;;;;3.83;1.60;;;;;;;9.18;46.94;101942.69;8084604;27;20698;-70
2021/05/29 02:07:02;;;;;;;1.90;1.40;;;;;;;9.14;46.88;101947.22;8089910;28;20038;-70
2021/05/29 02:10:52;;;;;;;2.20;1.80;;;;;;;9.12;46.78;101945.59;8087620;28;20040;-70
2021/05/29 02:14:43;;;;;;;3.47;1.65;;;;;;;9.05;46.96;101939.75;8087596;28;20115;-70
2021/05/29 02:18:34;;;;;;;1.60;1.40;;;;;;;9.05;47.17;101944.13;8079357;28;20717;-70
2021/05/29 02:22:24;;;;;;;2.47;1.75;;;;;;;9.02;47.03;101936.41;8088600;28;20036;-71
2021/05/29 02:26:21;;;;;;;1.95;1.52;;;;;;;8.97;47.11;101944.47;8087940;28;20130;-72
2021/05/29 02:30:12;;;;;;;2.67;1.80;;;;;;;8.95;47.12;101956.81;8076070;27;20028;-71
2021/05/29 02:34:03;;;;;;;2.10;1.90;;;;;;;8.91;47.34;101954.38;8088341;28;20036;-71
2021/05/29 02:37:54;;;;;;;4.75;2.08;;;;;;;8.88;47.01;101952.72;8089044;28;20034;-72
2021/05/29 02:41:45;;;;;;;1.85;1.63;;;;;;;8.84;47.31;101949.38;8087874;28;20115;-71
2021/05/29 02:45:38;;;;;;;3.00;1.95;;;;;;;8.78;47.27;101943.53;8086916;27;20115;-71
2021/05/29 02:49:29;;;;;;;4.13;1.77;;;;;;;8.64;47.53;101946.72;8081126;28;20529;-71
2021/05/29 02:53:20;;;;;;;3.45;2.00;;;;;;;8.73;47.26;101963.84;8085967;28;20035;-71
2021/05/29 02:57:12;;;;;;;2.22;1.73;;;;;;;8.68;47.52;101969.25;8082365;28;20067;-72
2021/05/29 03:01:03;;;;;;;1.92;1.67;;;;;;;8.59;47.29;101967.00;8087703;27;20040;-71
2021/05/29 03:04:54;;;;;;;3.17;1.85;;;;;;;8.54;47.20;101971.56;8075191;28;20134;-71
2021/05/29 03:08:44;;;;;;;2.30;1.55;;;;;;;8.58;47.57;101982.81;8087977;28;20623;-71
2021/05/29 03:12:39;;;;;;;1.50;1.40;;;;;;;8.46;47.58;101973.66;8086066;28;20122;-70
2021/05/29 03:16:29;;;;;;;2.65;1.80;;;;;;;8.48;47.44;101984.94;8085972;27;20039;-70
2021/05/29 03:20:23;;;;;;;1.95;1.65;;;;;;;8.44;47.73;101983.34;8085626;28;20031;-70
2021/05/29 03:24:14;;;;;;;4.93;2.00;;;;;;;8.42;47.45;101992.19;8071443;28;20043;-70
2021/05/29 03:28:05;;;;;;;1.95;1.75;;;;;;;8.37;47.83;101985.38;8091995;28;20031;-69
2021/05/29 03:31:55;;;;;;;3.20;1.90;;;;;;;8.27;47.89;101978.75;8088137;27;20082;-70
2021/05/29 03:35:46;;;;;;;2.95;1.70;;;;;;;8.27;47.46;101986.63;8091562;28;20036;-70
2021/05/29 03:39:37;;;;;;;5.60;2.15;;;;;;;8.28;47.62;101988.34;8091810;28;20032;-71
2021/05/29 03:43:28;;;;;;;2.08;1.80;;;;;;;8.23;48.05;101979.81;8090539;28;20067;-70
2021/05/29 03:47:18;;;;;;;2.85;1.83;;;;;;;8.24;47.75;101994.59;8090668;27;20077;-70
2021/05/29 03:51:09;;;;;;;1.85;1.52;;;;;;;8.23;48.02;101992.03;8090579;28;20497;-71
2021/05/29 03:55:00;;;;;;;2.10;1.38;;;;;;;8.23;48.15;101989.41;8091690;28;20599;-71
2021/05/29 03:58:50;;;;;;;2.42;1.65;;;;;;;8.20;48.20;101987.78;8090279;28;20039;-70
2021/05/29 04:02:42;;;;;;;1.65;1.55;;;;;;;8.19;47.93;101993.06;8090121;28;20055;-69
2021/05/29 04:06:32;;;;;;;2.75;1.77;;;;;;;8.18;48.50;101994.81;8091428;28;20116;-69
2021/05/29 04:10:28;;;;;;;2.28;1.67;;;;;;;8.13;48.16;101983.66;8092363;28;20591;-69
2021/05/29 04:14:18;;;;;;;1.88;1.60;;;;;;;8.20;48.33;101998.25;8091600;28;20036;-71
2021/05/29 04:18:09;;;;;;;2.30;1.45;;;;;;;8.22;48.19;102000.78;8091318;27;20096;-70
2021/05/29 04:22:00;;;;;;;5.25;1.70;;;;;;;8.17;48.35;101998.34;8086839;28;20036;-71
2021/05/29 04:25:50;;;;;;;7.03;1.67;;;;;;;8.29;48.13;102004.91;8090927;28;20205;-71
2021/05/29 04:29:41;;;;;;;2.42;1.77;;;;;;;8.37;48.22;102008.06;8090743;28;20452;-69
2021/05/29 04:33:32;;;;;;;2.10;1.70;;;;;;;8.45;48.37;102002.53;8086758;27;20575;-70
2021/05/29 04:37:23;;;;;;;2.45;1.63;;;;;;;8.57;48.45;102007.28;8091529;28;20118;-71
2021/05/29 04:41:13;;;;;;;4.00;1.95;;;;;;;8.71;48.53;102005.81;8092051;28;20032;-70
2021/05/29 04:45:06;;;;;;;4.60;2.03;;;;;;;9.00;48.57;102009.00;8088570;28;20111;-70
2021/05/29 04:48:57;;;;;;;2.85;2.08;;;;;;;9.38;48.96;102005.66;8092093;28;20044;-70
2021/05/29 04:52:48;;;;;;;3.83;2.05;;;;;;;9.98;49.49;102015.22;8091993;28;20044;-70
2021/05/29 04:56:39;;;;;;;2.80;2.10;;;;;;;10.57;49.59;102006.34;8091841;28;20043;-71
2021/05/29 05:00:29;;;;;;;3.47;2.25;;;;;;;11.30;49.49;102014.06;8082905;27;20035;-70
2021/05/29 05:04:20;;;;;;;4.50;2.42;;;;;;;11.96;49.68;102024.66;8088896;28;20049;-70
2021/05/29 05:08:11;;;;;;;4.10;2.67;;;;;;;12.62;49.67;102020.13;8083698;28;20044;-69
2021/05/29 05:12:08;;;;;;;3.72;2.33;;;;;;;13.30;49.34;102025.84;8089295;28;20040;-69
2021/05/29 05:15:59;;;;;;;4.03;2.70;;;;;;;13.95;49.04;102029.78;8091050;27;20123;-70
2021/05/29 05:19:49;;;;;;;4.45;3.03;;;;;;;14.59;48.78;102020.44;8076787;28;20469;-69
2021/05/29 05:23:40;;;;;;;5.40;3.03;;;;;;;15.22;48.27;102029.41;8090880;28;20023;-70
2021/05/29 05:27:32;;;;;;;4.15;2.53;;;;;;;15.84;47.78;102023.41;8086843;28;20042;-70
2021/05/29 05:31:22;;;;;;;3.40;2.92;;;;;;;16.43;47.32;102038.59;8086341;28;20039;-70
2021/05/29 05:35:15;;;;;;;5.05;2.97;;;;;;;17.00;46.89;102030.84;8087303;28;20831;-71
2021/05/29 05:39:08;;;;;;;4.18;3.00;;;;;;;17.56;46.63;102038.97;8087567;28;20086;-70
2021/05/29 05:42:59;;;;;;;4.90;3.13;;;;;;;18.06;46.13;102037.69;8066593;28;20442;-70
2021/05/29 05:46:50;;;;;;;5.05;2.83;;;;;;;18.58;45.62;102044.16;8078920;27;20560;-70
2021/05/29 05:51:01;;;;;;;3.72;2.95;;;;;;;19.10;44.95;102040.69;8072807;28;20066;-69
2021/05/29 05:54:51;;;;;;;3.40;2.75;;;;;;;19.59;44.81;102040.94;8082179;28;20035;-70
2021/05/29 05:58:42;;;;;;;4.75;3.45;;;;;;;20.08;43.92;102047.34;8087237;28;20062;-71
2021/05/29 06:02:33;;;;;;;4.68;3.03;;;;;;;20.56;43.49;102045.66;8060258;27;20526;-69
2021/05/29 06:06:24;;;;;;;5.22;2.78;;;;;;;21.07;43.05;102052.59;8075513;28;20110;-71
2021/05/29 06:10:15;;;;;;;6.18;3.33;;;;;;;21.53;42.43;102043.84;8085281;28;20042;-71
2021/05/29 06:18:40;;;;;;;4.63;3.55;;;;;;;22.34;41.32;102056.47;8072796;28;20684;-71
2021/05/29 06:22:08;;;;;;;5.15;2.72;;;;;;;22.86;40.70;102065.59;8069867;28;20695;-71
2021/05/29 06:25:58;;;;;;;5.15;3.05;;;;;;;23.24;39.73;102068.97;8068293;28;20066;-71
2021/05/29 06:29:49;;;;;;;4.00;2.90;;;;;;;23.56;39.72;102066.53;8074959;28;20066;-71
2021/05/29 06:33:40;;;;;;;5.05;3.00;;;;;;;23.98;39.25;102072.00;8075074;28;20066;-71
2021/05/29 06:37:30;;;;;;;3.58;2.85;;;;;;;24.29;38.93;102085.72;8084945;28;20107;-69
2021/05/29 06:41:23;;;;;;;3.15;2.50;;;;;;;24.57;38.16;102081.78;8076538;28;20661;-71
2021/05/29 06:45:14;;;;;;;3.80;2.83;;;;;;;24.88;37.51;102095.50;8084703;27;20031;-71
2021/05/29 06:49:05;;;;;;;4.00;2.60;;;;;;;25.13;37.27;102081.06;8080699;28;20094;-70
2021/05/29 06:52:59;;;;;;;4.32;2.60;;;;;;;24.83;37.67;102080.84;8084509;28;20747;-71
2021/05/29 07:01:00;;;;;;;3.70;2.50;;;;;;;23.52;38.80;102091.97;8086526;28;20149;-70
2021/05/29 07:04:51;;;;;;;3.95;2.63;;;;;;;22.88;38.94;102094.91;8091237;28;20063;-71
2021/05/29 07:08:42;;;;;;;3.42;2.85;;;;;;;22.27;38.96;102097.38;8093139;28;20027;-71
2021/05/29 07:12:33;;;;;;;3.22;2.47;;;;;;;21.70;39.14;102087.69;8083247;28;20036;-70
2021/05/29 07:16:23;;;;;;;4.47;2.25;;;;;;;21.17;39.18;102091.66;8080651;27;20042;-70
2021/05/29 07:20:14;;;;;;;3.70;2.50;;;;;;;20.71;39.13;102095.03;8090476;28;20056;-71
2021/05/29 07:24:06;;;;;;;3.08;2.17;;;;;;;20.30;39.22;102091.66;8079845;28;20039;-71
2021/05/29 07:27:56;;;;;;;3.25;2.42;;;;;;;19.88;39.94;102093.56;8076915;28;20040;-70
2021/05/29 07:31:47;;;;;;;3.38;2.60;;;;;;;19.58;39.85;102089.03;8074082;28;20040;-71
2021/05/29 07:35:37;;;;;;;8.50;2.67;;;;;;;19.35;40.08;102090.94;8064979;28;20024;-70
2021/05/29 07:39:28;;;;;;;2.63;2.15;;;;;;;19.17;39.95;102098.69;8073931;28;20115;-70
2021/05/29 07:43:19;;;;;;;2.25;2.03;;;;;;;19.02;40.32;102099.09;8078801;28;20031;-71
2021/05/29 07:47:12;;;;;;;2.42;2.00;;;;;;;18.87;40.43;102093.19;8082933;28;20487;-71
2021/05/29 07:51:04;;;;;;;5.18;2.40;;;;;;;18.82;40.71;102101.56;8069044;28;20066;-72
2021/05/29 07:54:55;;;;;;;8.35;1.90;;;;;;;18.73;40.50;102104.13;8085088;28;20115;-71
2021/05/29 07:58:48;;;;;;;3.67;2.10;;;;;;;18.61;40.42;102108.63;8089438;28;20048;-71
2021/05/29 08:02:38;;;;;;;3.50;2.15;;;;;;;18.51;40.16;102110.34;8088498;28;20029;-71
2021/05/29 08:06:30;;;;;;;2.78;1.70;;;;;;;18.43;40.11;102104.78;8074435;28;20067;-70
2021/05/29 08:10:20;;;;;;;2.10;1.63;;;;;;;18.41;40.71;102114.66;8085366;28;20664;-70
2021/05/29 08:14:12;;;;;;;3.03;2.00;;;;;;;18.37;40.43;102102.56;8089765;28;20039;-71
2021/05/29 08:18:03;;;;;;;2.15;1.67;;;;;;;18.42;40.54;102122.53;8086535;27;20693;-71
2021/05/29 08:21:56;;;;;;;2.58;1.75;;;;;;;18.44;40.75;102125.06;8072647;28;20028;-70
2021/05/29 08:26:03;;;;;;;7.63;1.90;;;;;;;18.43;40.34;102124.25;8074925;28;20464;-70
2021/05/29 08:29:54;;;;;;;2.70;2.00;;;;;;;18.45;40.58;102113.47;8089415;28;20031;-71
2021/05/29 08:33:45;;;;;;;2.35;1.80;;;;;;;18.50;40.51;102124.59;8096859;28;20048;-70
2021/05/29 08:37:36;;;;;;;4.40;2.22;;;;;;;18.51;40.57;102126.31;8079621;28;20043;-70
2021/05/29 08:41:27;;;;;;;4.18;2.13;;;;;;;18.50;40.27;102124.59;8089802;28;20119;-71
2021/05/29 08:45:20;;;;;;;2.70;1.77;;;;;;;18.53;39.85;102132.34;8089818;28;20028;-71
2021/05/29 08:49:10;;;;;;;3.10;2.33;;;;;;;18.45;39.80;102116.13;8089844;28;20065;-71
2021/05/29 08:53:01;;;;;;;3.40;2.22;;;;;;;18.53;40.10;102127.00;8089519;28;20043;-68
2021/05/29 08:56:52;;;;;;;3.20;2.47;;;;;;;18.59;39.85;102128.34;8089737;28;20550;-70
2021/05/29 09:00:42;;;;;;;4.13;1.90;;;;;;;18.59;39.66;102123.03;8088491;27;20030;-70
2021/05/29 09:04:33;;;;;;;5.13;2.42;;;;;;;18.65;39.60;102130.50;8079468;28;20388;-70
2021/05/29 09:08:27;;;;;;;9.65;3.05;;;;;;;18.66;39.82;102126.88;8067630;28;20483;-69
2021/05/29 09:12:20;;;;;;;4.07;1.92;;;;;;;18.69;39.41;102130.13;8071514;28;20074;-71
2021/05/29 09:16:11;;;;;;;7.32;2.35;;;;;;;18.66;39.24;102118.88;8071349;28;20768;-70
2021/05/29 09:20:11;;;;;;;2.33;1.85;;;;;;;18.71;39.15;102133.53;8080244;28;20039;-71
2021/05/29 09:24:14;;;;;;;4.50;1.70;;;;;;;18.76;39.55;102139.34;8076200;28;20044;-69
2021/05/29 09:28:06;;;;;;;3.00;1.88;;;;;;;18.77;39.01;102129.53;8088236;28;20111;-71
2021/05/29 09:32:07;;;;;;;3.35;1.73;;;;;;;18.82;39.08;102129.97;8088645;27;20043;-71
2021/05/29 09:36:01;;;;;;;3.40;2.08;;;;;;;18.86;39.30;102142.06;8079493;28;20466;-71
2021/05/29 09:40:10;;;;;;;2.03;1.60;;;;;;;18.87;39.29;102141.09;8073398;28;20028;-71
2021/05/29 09:44:04;;;;;;;2.35;1.52;;;;;;;18.95;38.99;102146.66;8065859;28;20043;-71
2021/05/29 09:48:29;;;;;;;3.25;1.83;;;;;;;18.96;38.98;102139.53;8078759;28;20139;-70
2021/05/29 09:52:35;;;;;;;3.33;1.70;;;;;;;19.00;38.84;102135.63;8044181;28;20170;-71
2021/05/29 09:56:34;;;;;;;3.50;2.08;;;;;;;19.09;38.95;102141.06;8063250;28;20077;-70
2021/05/29 10:00:41;;;;;;;3.42;1.80;;;;;;;19.13;38.69;102145.16;8065842;27;20034;-71
2021/05/29 10:04:38;;;;;;;3.63;2.00;;;;;;;19.17;38.90;102140.44;8070066;28;20035;-70
2021/05/29 10:08:29;;;;;;;;;;;;;;;19.08;39.50;102146.50;8070865;28;20054;-70
2021/05/29 10:12:20;;;;;;;3.30;2.10;;;;;;;19.20;38.87;102143.72;8077105;28;19916;-70
2021/05/29 10:16:13;;;;;;;2.75;1.70;;;;;;;19.21;38.68;102142.75;8077336;28;20036;-70
2021/05/29 10:20:04;;;;;;;5.13;1.50;;;;;;;19.15;38.29;102137.91;8076030;28;20123;-70
2021/05/29 10:23:56;;;;;;;5.70;2.22;;;;;;;19.03;38.20;102132.72;8087745;28;20059;-70
2021/05/29 10:27:52;;;;;;;3.55;1.80;;;;;;;19.07;38.40;102145.66;8086252;28;20027;-71
2021/05/29 10:31:43;;;;;;;2.20;1.85;;;;;;;19.02;38.32;102137.19;8084295;28;20032;-70
2021/05/29 10:35:35;;;;;;;3.13;1.88;;;;;;;19.00;38.37;102125.84;8086403;28;20134;-70
2021/05/29 10:39:44;;;;;;;2.72;1.70;;;;;;;19.07;38.59;102139.47;8084114;28;20039;-70
2021/05/29 10:43:36;;;;;;;2.88;1.75;;;;;;;19.05;38.27;102136.97;8085843;28;20054;-70
2021/05/29 10:47:27;;;;;;;2.88;1.50;;;;;;;19.05;38.44;102126.31;8069806;28;20540;-71
2021/05/29 10:51:18;;;;;;;1.95;1.35;;;;;;;19.07;38.32;102132.34;8069712;28;20479;-70
2021/05/29 10:55:11;;;;;;;2.55;1.70;;;;;;;19.09;37.63;102130.41;8061842;28;20039;-71
2021/05/29 10:59:14;;;;;;;2.97;1.90;;;;;;;19.10;38.12;102128.59;8069282;28;20106;-71
2021/05/29 11:03:17;;;;;;;2.40;1.50;;;;;;;19.10;37.95;102137.41;8071123;28;20488;-71
2021/05/29 11:07:26;;;;;;;1.90;1.45;;;;;;;19.08;37.58;102131.38;8091190;28;20039;-71
2021/05/29 11:11:35;;;;;;;2.65;1.35;;;;;;;19.08;38.00;102127.84;8084953;28;20113;-70
2021/05/29 11:15:54;;;;;;;3.42;1.70;;;;;;;19.13;37.84;102120.34;8086761;28;20036;-70
2021/05/29 11:20:12;;;;;;;4.97;2.20;;;;;;;19.14;37.71;102120.19;8071276;28;20093;-70
2021/05/29 11:24:16;;;;;;;2.07;1.47;;;;;;;19.12;37.96;102115.97;8075673;28;20097;-71
2021/05/29 11:28:07;;;;;;;3.35;1.58;;;;;;;19.19;37.48;102127.84;8081673;28;20465;-71
2021/05/29 11:31:57;;;;;;;3.10;1.50;;;;;;;19.19;37.54;102128.69;8073634;28;20079;-71
2021/05/29 11:35:51;;;;;;;2.92;1.48;;;;;;;19.20;37.81;102111.75;8080306;28;20814;-71
2021/05/29 11:39:52;;;;;;;4.10;1.80;;;;;;;19.21;37.68;102116.09;8090122;28;20035;-70
2021/05/29 11:43:44;;;;;;;1.90;1.42;;;;;;;19.20;38.00;102118.88;8085841;28;20035;-71
2021/05/29 11:47:35;;;;;;;1.88;1.58;;;;;;;19.22;37.91;102112.47;8088124;28;20421;-71
2021/05/29 11:51:27;;;;;;;3.40;1.70;;;;;;;19.26;37.38;102113.91;8081710;28;20471;-70
2021/05/29 11:55:20;;;;;;;4.05;2.55;;;;;;;19.29;37.76;102116.31;8091659;28;20109;-70
2021/05/29 11:59:13;;;;;;;4.57;2.13;;;;;;;19.26;37.46;102126.38;8091097;28;20028;-71
2021/05/29 12:03:04;;;;;;;5.32;2.70;;;;;;;19.26;37.73;102129.03;8081701;27;20036;-70
2021/05/29 12:06:57;;;;;;;4.10;2.40;;;;;;;19.25;37.78;102122.88;8077807;28;20071;-70
2021/05/29 12:10:52;;;;;;;4.18;2.58;;;;;;;19.21;37.70;102125.91;8086253;28;20500;-71
2021/05/29 12:14:43;;;;;;;5.40;3.08;;;;;;;19.15;37.40;102121.06;8082590;28;20040;-70
2021/05/29 12:18:40;;;;;;;6.03;2.70;;;;;;;19.13;37.40;102125.66;8090355;27;20429;-70
2021/05/29 12:22:31;;;;;;;3.67;2.45;;;;;;;19.08;37.31;102118.06;8090396;28;20744;-71
2021/05/29 12:26:23;;;;;;;4.32;3.00;;;;;;;19.05;37.51;102122.78;8090616;28;20099;-71
2021/05/29 12:30:17;;;;;;;6.72;3.08;;;;;;;19.04;37.54;102127.28;8087110;28;20502;-70
2021/05/29 12:34:07;;;;;;;4.35;2.40;;;;;;;19.00;37.55;102133.81;8088492;28;20403;-70
2021/05/29 12:38:12;;;;;;;4.13;2.60;;;;;;;18.99;37.21;102132.13;8096701;28;20628;-71
2021/05/29 12:42:03;;;;;;;4.88;3.00;;;;;;;18.95;37.47;102130.69;8089844;28;20038;-71
2021/05/29 12:45:54;;;;;;;3.88;2.40;;;;;;;18.96;37.14;102129.72;8081908;28;20039;-71
2021/05/29 12:49:44;;;;;;;3.75;2.83;;;;;;;18.88;37.19;102126.84;8088941;28;20028;-71
2021/05/29 12:53:38;;;;;;;3.60;2.65;;;;;;;18.79;37.05;102130.25;8093872;28;20043;-69
2021/05/29 12:57:44;;;;;;;3.00;2.22;;;;;;;18.70;37.02;102120.34;8089323;28;20575;-69
2021/05/29 13:10:23;;;;;;;3.60;2.70;;;;;;;18.47;37.24;102119.53;8084779;28;20129;-71
2021/05/29 13:14:26;;;;;;;4.38;2.53;;;;;;;18.49;37.62;102132.69;8087327;28;20051;-72
2021/05/29 13:18:18;;;;;;;3.78;2.30;;;;;;;18.47;37.38;102140.81;8087020;28;20473;-71
2021/05/29 13:22:40;;;;;;;4.38;2.90;;;;;;;18.39;37.58;102138.75;8082897;28;20031;-71
2021/05/29 13:26:30;;;;;;;5.18;2.92;;;;;;;18.40;37.65;102142.22;8080686;28;20036;-71
2021/05/29 13:30:26;;;;;;;4.10;2.30;;;;;;;18.34;37.07;102140.06;8060572;27;20063;-71
2021/05/29 13:34:17;;;;;;;3.00;2.30;;;;;;;18.27;37.48;102134.38;8076172;28;20044;-71
2021/05/29 13:38:08;;;;;;;3.03;2.13;;;;;;;18.20;37.35;102127.00;8091011;28;20044;-71
2021/05/29 13:42:01;;;;;;;4.35;2.30;;;;;;;18.17;36.97;102121.94;8088541;28;20020;-71
2021/05/29 13:45:51;;;;;;;3.67;1.90;;;;;;;18.15;37.39;102134.50;8087395;27;20035;-71
2021/05/29 13:49:43;;;;;;;2.78;2.28;;;;;;;18.15;37.62;102140.66;8087122;28;20031;-71
2021/05/29 13:53:33;;;;;;;2.97;2.40;;;;;;;18.15;37.65;102139.81;8097775;28;20027;-71
2021/05/29 13:57:24;;;;;;;3.67;2.75;;;;;;;18.18;37.55;102143.09;8087881;28;20040;-71
2021/05/29 14:01:15;;;;;;;3.33;2.55;;;;;;;18.14;37.46;102141.63;8085208;27;20036;-71
2021/05/29 14:05:07;;;;;;;3.67;2.58;;;;;;;18.13;37.80;102137.28;8095659;28;20039;-71
2021/05/29 14:08:58;;;;;;;3.33;2.70;;;;;;;18.12;37.79;102143.56;8080341;28;20031;-71
2021/05/29 14:12:50;;;;;;;5.25;2.60;;;;;;;18.13;37.43;102145.25;8087922;28;20028;-71
2021/05/29 14:16:40;;;;;;;3.78;2.65;;;;;;;18.09;37.54;102146.47;8082085;27;20043;-71
2021/05/29 14:20:31;;;;;;;3.78;2.45;;;;;;;18.05;37.93;102150.31;8088802;27;20039;-71
2021/05/29 14:24:22;;;;;;;4.38;2.30;;;;;;;18.02;37.72;102149.72;8089166;28;20593;-71
2021/05/29 14:28:12;;;;;;;4.47;2.40;;;;;;;17.99;37.71;102146.31;8085722;28;20088;-71
2021/05/29 14:32:04;;;;;;;3.83;2.67;;;;;;;18.00;37.80;102152.50;8083049;27;20048;-71
2021/05/29 14:35:56;;;;;;;4.63;2.72;;;;;;;17.98;37.65;102141.16;8084446;28;20569;-71
2021/05/29 14:39:46;;;;;;;3.75;2.45;;;;;;;;;;8085198;28;20042;-71
2021/05/29 14:43:37;;;;;;;2.33;2.00;;;;;;;17.93;37.59;102153.94;8086582;28;20035;-71
2021/05/29 14:47:27;;;;;;;2.92;2.22;;;;;;;17.89;37.57;102148.00;8091481;27;20114;-71
2021/05/29 14:51:20;;;;;;;4.10;2.30;;;;;;;17.84;37.44;102142.19;8085073;28;20099;-70
2021/05/29 14:55:11;;;;;;;4.00;2.28;;;;;;;17.78;37.53;102152.44;8082136;28;20476;-69
2021/05/29 14:59:02;;;;;;;3.83;2.40;;;;;;;17.67;37.61;102142.59;8072541;28;20035;-70
2021/05/29 15:02:52;;;;;;;3.33;2.30;;;;;;;17.73;37.62;102151.97;8086697;28;20030;-70
2021/05/29 15:06:43;;;;;;;2.72;1.90;;;;;;;17.73;37.37;102154.63;8081307;28;20685;-69
2021/05/29 15:10:33;;;;;;;4.25;2.45;;;;;;;17.68;37.52;102146.97;8082375;28;20032;-70
2021/05/29 15:14:24;;;;;;;3.65;2.40;;;;;;;17.67;37.25;102144.41;8083483;28;20028;-70
2021/05/29 15:18:15;;;;;;;4.00;2.45;;;;;;;17.69;37.34;102151.34;8083602;28;20571;-70
2021/05/29 15:22:06;;;;;;;2.92;2.25;;;;;;;17.68;37.42;102149.63;8090560;28;20039;-69
2021/05/29 15:25:58;;;;;;;2.88;1.95;;;;;;;17.66;37.26;102142.72;8102157;28;20545;-69
2021/05/29 15:29:49;;;;;;;4.75;2.83;;;;;;;17.67;37.74;102149.72;8084076;28;20031;-69
2021/05/29 15:33:40;;;;;;;3.42;2.42;;;;;;;17.62;37.56;102142.09;8076379;27;20024;-69
2021/05/29 15:37:30;;;;;;;4.20;2.70;;;;;;;17.64;37.76;102147.31;8087276;28;20407;-69
2021/05/29 15:41:21;;;;;;;3.28;2.50;;;;;;;17.66;37.60;102140.06;8091838;28;20028;-69
2021/05/29 15:45:12;;;;;;;3.92;2.28;;;;;;;17.64;37.81;102137.53;8090574;28;20027;-70
2021/05/29 15:49:03;;;;;;;3.75;2.30;;;;;;;17.64;37.34;102142.00;8091403;28;20023;-69
2021/05/29 15:52:55;;;;;;;3.42;2.50;;;;;;;17.53;37.77;102126.84;8083484;28;20089;-70
2021/05/29 15:56:46;;;;;;;3.83;2.53;;;;;;;17.59;37.66;102142.34;8095728;28;20023;-69
2021/05/29 16:00:37;;;;;;;4.72;2.70;;;;;;;17.55;37.70;102131.09;8082501;27;20070;-69
2021/05/29 16:04:31;;;;;;;3.65;2.90;;;;;;;17.55;37.82;102128.44;8101980;28;20160;-69
2021/05/29 16:08:24;;;;;;;5.10;2.80;;;;;;;17.55;37.98;102125.78;8090141;28;20136;-69
2021/05/29 16:12:15;;;;;;;4.90;2.60;;;;;;;17.53;37.78;102124.19;8086160;28;20032;-69
2021/05/29 16:16:05;;;;;;;3.55;2.47;;;;;;;17.52;37.81;102134.00;8090617;27;20123;-69
2021/05/29 16:19:56;;;;;;;3.85;2.60;;;;;;;17.49;37.85;102120.06;8091266;28;20127;-69
2021/05/29 16:23:47;;;;;;;6.25;2.78;;;;;;;17.48;37.76;102137.84;8090431;28;20514;-69
2021/05/29 16:27:37;;;;;;;5.50;2.67;;;;;;;17.47;37.86;102133.50;8092490;28;20075;-69
2021/05/29 16:31:29;;;;;;;3.85;2.50;;;;;;;17.39;37.94;102119.94;8078897;27;20131;-70
2021/05/29 16:35:22;;;;;;;3.50;2.22;;;;;;;17.45;38.10;102130.09;8078342;28;20055;-70
2021/05/29 16:39:13;;;;;;;4.18;2.50;;;;;;;17.47;38.02;102137.94;8085748;28;20441;-70
2021/05/29 16:43:04;;;;;;;4.03;2.67;;;;;;;17.45;38.04;102121.28;8074864;28;20081;-69
2021/05/29 16:46:55;;;;;;;5.82;2.58;;;;;;;17.39;38.08;102114.63;8091521;27;20031;-70
2021/05/29 16:50:58;;;;;;;3.65;2.65;;;;;;;17.39;37.74;102117.28;8082050;28;20760;-70
2021/05/29 16:54:49;;;;;;;3.72;2.67;;;;;;;17.43;37.95;102132.03;8075251;28;20032;-69
2021/05/29 16:58:40;;;;;;;4.45;2.60;;;;;;;17.41;37.92;102123.31;8077926;28;20047;-69
2021/05/29 17:02:30;;;;;;;3.17;2.33;;;;;;;17.40;38.22;102118.97;8078711;28;20063;-69
2021/05/29 17:06:21;;;;;;;6.82;3.25;;;;;;;17.41;38.07;102114.50;8079094;28;20388;-70
2021/05/29 17:10:12;;;;;;;3.25;2.10;;;;;;;17.39;38.15;102121.75;8071067;28;20147;-70
2021/05/29 17:14:03;;;;;;;5.85;2.63;;;;;;;17.38;37.90;102123.56;8082889;28;20032;-69
2021/05/29 17:17:54;;;;;;;4.60;2.50;;;;;;;17.36;37.77;102122.00;8081676;27;20028;-70
2021/05/29 17:21:44;;;;;;;4.63;2.97;;;;;;;17.33;37.66;102120.38;8070589;28;20032;-71
2021/05/29 17:25:35;;;;;;;8.52;2.50;;;;;;;17.32;37.74;102128.50;8077594;28;20032;-71
2021/05/29 17:29:25;;;;;;;4.05;2.47;;;;;;;17.24;37.61;102109.63;8071755;28;20040;-71
2021/05/29 17:33:16;;;;;;;3.05;2.17;;;;;;;17.23;37.38;102111.44;8068352;28;20032;-72
2021/05/29 17:37:07;;;;;;;5.53;2.30;;;;;;;17.19;37.61;102112.63;8072979;28;20067;-70
2021/05/29 17:40:57;;;;;;;3.42;2.33;;;;;;;17.16;37.27;102114.63;8079451;28;20563;-69
2021/05/29 17:44:48;;;;;;;3.00;1.90;;;;;;;17.15;37.28;102124.44;8082134;28;20036;-69
2021/05/29 17:48:39;;;;;;;2.47;1.75;;;;;;;17.13;37.35;102128.16;8085621;27;20785;-69
2021/05/29 17:52:29;;;;;;;3.08;1.92;;;;;;;17.10;37.24;102129.22;8077806;28;20089;-69
2021/05/29 17:56:20;;;;;;;3.10;1.98;;;;;;;17.04;37.39;102124.34;8074265;28;20475;-69
2021/05/29 18:00:20;;;;;;;6.25;2.00;;;;;;;17.00;37.31;102117.59;8080241;27;20034;-69
2021/05/29 18:04:11;;;;;;;4.63;2.03;;;;;;;16.99;37.38;102137.13;8087397;28;20070;-69
2021/05/29 18:08:01;;;;;;;3.08;2.20;;;;;;;16.93;37.27;102127.81;8068473;28;20028;-69
2021/05/29 18:11:52;;;;;;;4.10;2.00;;;;;;;16.89;37.30;102133.44;8086738;28;20042;-68
2021/05/29 18:15:43;;;;;;;4.00;2.20;;;;;;;16.87;37.35;102135.31;8076805;27;20057;-70
2021/05/29 18:19:33;;;;;;;2.38;1.90;;;;;;;16.84;37.20;102138.22;8080602;28;20032;-72
2021/05/29 18:23:24;;;;;;;2.72;1.85;;;;;;;16.79;37.47;102127.94;8078723;28;20584;-72